MSC Maya — 3FNF8 — position and weather

sailwx.info

Track history (hours):
 
Tides and Currents Weather Stations Pressure Air Temp Water Temp Dewpoint Dewpoint Depression Visibility Wind Speed Wind Dir Waves Ship Positions

MSC Maya

Last reported at 2015-May-22 10:07 UTC. Time now 2015-May-24 15:20 UTC.
Position N 26°03' W 077°54'.

Length 242 m; draft 8.1 m.

Type: Cargo ship. MMSI: 351384000.

Date/timePositionNaut miles runAvg speedWind from/ knotsBaromVisibWave heightAir tempDewpointWater temp
2015-May-22 10:07N 26°03' W 077°54'5514.0
2015-May-22 06:11N 26°31' W 078°47'23 1.1
2015-May-21 09:26N 26°43' W 079°08'3210.0
2015-May-21 06:12N 27°13' W 079°20'6 9.7
2015-May-21 05:33N 27°19' W 079°21'10 9.7
2015-May-21 04:33N 27°29' W 079°21'10 9.6
2015-May-21 03:28N 27°40' W 079°21'19 9.9
2015-May-21 01:33N 27°59' W 079°20'1010.3
2015-May-21 00:33N 28°09' W 079°20'1110.6
2015-May-20 23:33N 28°19' W 079°20'10 9.9
2015-May-20 22:33N 28°29' W 079°20'1111.0
2015-May-20 21:34N 28°40' W 079°20'20113.0
2015-May-20 06:04N 32°01' W 079°28'44 2.6
2015-May-19 13:15N 32°42' W 079°47'1111.4
2015-May-19 12:15N 32°39' W 079°34'7 9.4
2015-May-19 11:30N 32°41' W 079°26'1011.0
2015-May-19 10:33N 32°45' W 079°15'1414.2
2015-May-19 09:34N 32°51' W 078°59'3114.3
2015-May-19 07:25N 33°01' W 078°25'1213.8
2015-May-19 06:33N 33°05' W 078°11'6813.6
2015-May-19 01:33N 33°36' W 076°59'1413.4
2015-May-19 00:30N 33°45' W 076°46'1213.1
2015-May-18 23:33N 33°52' W 076°34'1414.2
2015-May-18 22:33N 34°02' W 076°21'1615.0
2015-May-18 21:31N 34°11' W 076°06'3014.4
2015-May-18 19:26N 34°33' W 075°41'204 6.8
2015-May-17 13:11N 37°56' W 076°10'4917.4
2015-May-17 10:20N 38°44' W 076°26'1316.6
2015-May-17 09:32N 38°57' W 076°23'1111.6
2015-May-17 08:33N 39°08' W 076°24'1010.0
2015-May-17 07:33N 39°15' W 076°34'1 0.7
2015-May-17 06:31N 39°15' W 076°33'0 0.0
2015-May-17 05:31N 39°15' W 076°33'0 0.0
2015-May-17 04:31N 39°15' W 076°33'0 0.0
2015-May-17 03:28N 39°15' W 076°33'0 0.0
2015-May-17 02:28N 39°15' W 076°33'0 0.0
2015-May-17 01:31N 39°15' W 076°33'0 0.0
2015-May-17 00:28N 39°15' W 076°33'0 0.0
2015-May-16 23:28N 39°15' W 076°33'0 0.0
2015-May-16 22:28N 39°15' W 076°33'0 0.0
2015-May-16 21:31N 39°15' W 076°33'0 0.0
2015-May-16 20:22N 39°15' W 076°33'3 3.7
2015-May-16 19:32N 39°13' W 076°31'1411.4
2015-May-16 18:21N 39°01' W 076°22'6119.8
2015-May-16 15:15N 38°00' W 076°12'77 7.2
2015-May-16 04:30N 37°46' W 074°36'1616.7
2015-May-16 03:34N 37°59' W 074°25'1716.7
2015-May-16 02:31N 38°16' W 074°19'1616.5
2015-May-16 01:33N 38°31' W 074°12'1716.9
2015-May-16 00:33N 38°47' W 074°06'2116.9
2015-May-15 23:20N 39°07' W 073°59'1317.0
2015-May-15 22:33N 39°20' W 073°56'1716.8
2015-May-15 21:33N 39°37' W 073°53'1716.7
2015-May-15 20:33N 39°54' W 073°51'1716.6
2015-May-15 19:33N 40°10' W 073°50'1616.4
2015-May-15 18:33N 40°26' W 073°49'1212.0
2015-May-15 17:33N 40°33' W 074°02'8 7.9
2015-May-15 16:33N 40°39' W 074°09'2 2.4
2015-May-15 15:33N 40°41' W 074°09'0 0.0
2015-May-15 14:33N 40°41' W 074°09'0 0.0
2015-May-15 13:27N 40°41' W 074°09'0 0.0
2015-May-15 12:33N 40°41' W 074°09'0 0.0
2015-May-15 11:34N 40°41' W 074°09'0 0.0
2015-May-15 10:31N 40°41' W 074°09'0 0.0
2015-May-15 09:31N 40°41' W 074°09'0 0.0
2015-May-15 08:31N 40°41' W 074°09'0 0.0
2015-May-15 07:33N 40°41' W 074°09'0 0.0
2015-May-15 06:32N 40°41' W 074°09'0 0.0
2015-May-15 05:33N 40°41' W 074°09'0 0.0
2015-May-15 04:32N 40°41' W 074°09'0 0.0
2015-May-15 03:31N 40°41' W 074°09'0 0.0
2015-May-15 02:32N 40°41' W 074°09'0 0.0
2015-May-15 01:26N 40°41' W 074°09'0 0.0
2015-May-15 00:32N 40°41' W 074°09'0 0.0
2015-May-14 23:29N 40°41' W 074°09'0 0.0
2015-May-14 22:33N 40°41' W 074°09'0 0.0
2015-May-14 21:33N 40°41' W 074°09'0 0.0
2015-May-14 20:33N 40°41' W 074°09'0 0.0
2015-May-14 19:25N 40°41' W 074°09'0 0.0
2015-May-14 18:28N 40°41' W 074°09'0 0.0
2015-May-14 17:27N 40°41' W 074°09'0 0.0
2015-May-14 16:33N 40°41' W 074°09'0 0.0
2015-May-14 15:33N 40°41' W 074°09'0 0.0
2015-May-14 14:28N 40°41' W 074°09'0 0.0
2015-May-14 13:04N 40°41' W 074°09'0 0.0
2015-May-14 12:22N 40°41' W 074°09'0 0.0
2015-May-14 11:25N 40°41' W 074°09'0 0.0
2015-May-14 10:30N 40°41' W 074°09'0 0.0
2015-May-14 09:33N 40°41' W 074°09'0 0.0
2015-May-14 08:33N 40°41' W 074°09'0 0.0
2015-May-14 07:33N 40°41' W 074°09'0 0.0
2015-May-14 06:33N 40°41' W 074°09'0 0.0
2015-May-14 05:33N 40°41' W 074°09'0 0.0
2015-May-14 04:33N 40°41' W 074°09'0 0.0
2015-May-14 03:33N 40°41' W 074°09'0 0.0
2015-May-14 02:32N 40°41' W 074°09'0 0.0
2015-May-14 01:33N 40°41' W 074°09'0 0.0
2015-May-14 00:32N 40°41' W 074°09'0 0.0
2015-May-13 23:32N 40°41' W 074°09'0 0.0
2015-May-13 22:31N 40°41' W 074°09'0 0.0
2015-May-13 21:33N 40°41' W 074°09'0 0.0
2015-May-13 20:33N 40°41' W 074°09'0 0.0
2015-May-13 19:33N 40°41' W 074°09'0 0.0
2015-May-13 18:33N 40°41' W 074°09'0 0.0
2015-May-13 17:30N 40°41' W 074°09'0 0.0
2015-May-13 16:33N 40°41' W 074°09'0 0.0
2015-May-13 15:33N 40°41' W 074°09'0 0.0
2015-May-13 14:33N 40°41' W 074°09'0 0.0
2015-May-13 13:33N 40°41' W 074°09'0 0.0
2015-May-13 12:33N 40°41' W 074°09'0 0.0
2015-May-13 11:33N 40°41' W 074°09'0 0.0
2015-May-13 10:33N 40°41' W 074°09'1 1.3
2015-May-13 09:33N 40°40' W 074°08'4 4.4
2015-May-13 08:33N 40°38' W 074°03'1111.2
2015-May-13 07:33N 40°29' W 073°54'9 8.6
2015-May-13 06:32N 40°24' W 073°44'10 8.0
2015-May-13 05:17N 40°19' W 073°33'7 9.2
2015-May-13 04:31N 40°19' W 073°24'0 0.2
2015-May-13 02:31N 40°20' W 073°24'0 0.0
2015-May-13 01:31N 40°20' W 073°24'0 0.0
2015-May-13 00:31N 40°20' W 073°24'0 0.0
2015-May-12 23:28N 40°20' W 073°24'0 0.0
2015-May-12 22:31N 40°20' W 073°24'0 0.0
2015-May-12 21:31N 40°20' W 073°24'0 0.0
2015-May-12 20:28N 40°20' W 073°24'0 0.0
2015-May-12 19:31N 40°20' W 073°24'0 0.0
2015-May-12 18:19N 40°20' W 073°24'0 0.0
2015-May-12 17:25N 40°20' W 073°24'0 0.0
2015-May-12 16:33N 40°20' W 073°24'5 4.6
2015-May-12 15:33N 40°17' W 073°20'1414.0
2015-May-12 14:33N 40°05' W 073°09'1110.0
2015-May-12 13:28N 39°58' W 072°58'3 2.8
2015-May-12 12:27N 39°56' W 072°56'1010.8
2015-May-12 11:33N 39°49' W 072°47'1110.8
2015-May-12 10:33N 39°41' W 072°38'  
Track history (hours):
 
Tides and Currents Weather Stations Pressure Air Temp Water Temp Dewpoint Dewpoint Depression Visibility Wind Speed Wind Dir Waves Ship Positions

MSC Maya

Last reported at 2015-May-22 10:07 UTC. Time now 2015-May-24 15:20 UTC.
Position N 26°03' W 077°54'.

Length 242 m; draft 8.1 m.

Type: Cargo ship. MMSI: 351384000.

Date/timePositionNaut miles runAvg speedWind from/ knotsBaromVisibWave heightAir tempDewpointWater temp
2015-May-22 10:07N 26°03' W 077°54'5514.0
2015-May-22 06:11N 26°31' W 078°47'23 1.1
2015-May-21 09:26N 26°43' W 079°08'3210.0
2015-May-21 06:12N 27°13' W 079°20'6 9.7
2015-May-21 05:33N 27°19' W 079°21'10 9.7
2015-May-21 04:33N 27°29' W 079°21'10 9.6
2015-May-21 03:28N 27°40' W 079°21'19 9.9
2015-May-21 01:33N 27°59' W 079°20'1010.3
2015-May-21 00:33N 28°09' W 079°20'1110.6
2015-May-20 23:33N 28°19' W 079°20'10 9.9
2015-May-20 22:33N 28°29' W 079°20'1111.0
2015-May-20 21:34N 28°40' W 079°20'20113.0
2015-May-20 06:04N 32°01' W 079°28'44 2.6
2015-May-19 13:15N 32°42' W 079°47'1111.4
2015-May-19 12:15N 32°39' W 079°34'7 9.4
2015-May-19 11:30N 32°41' W 079°26'1011.0
2015-May-19 10:33N 32°45' W 079°15'1414.2
2015-May-19 09:34N 32°51' W 078°59'3114.3
2015-May-19 07:25N 33°01' W 078°25'1213.8
2015-May-19 06:33N 33°05' W 078°11'6813.6
2015-May-19 01:33N 33°36' W 076°59'1413.4
2015-May-19 00:30N 33°45' W 076°46'1213.1
2015-May-18 23:33N 33°52' W 076°34'1414.2
2015-May-18 22:33N 34°02' W 076°21'1615.0
2015-May-18 21:31N 34°11' W 076°06'3014.4
2015-May-18 19:26N 34°33' W 075°41'204 6.8
2015-May-17 13:11N 37°56' W 076°10'4917.4
2015-May-17 10:20N 38°44' W 076°26'1316.6
2015-May-17 09:32N 38°57' W 076°23'1111.6
2015-May-17 08:33N 39°08' W 076°24'1010.0
2015-May-17 07:33N 39°15' W 076°34'1 0.7
2015-May-17 06:31N 39°15' W 076°33'0 0.0
2015-May-17 05:31N 39°15' W 076°33'0 0.0
2015-May-17 04:31N 39°15' W 076°33'0 0.0
2015-May-17 03:28N 39°15' W 076°33'0 0.0
2015-May-17 02:28N 39°15' W 076°33'0 0.0
2015-May-17 01:31N 39°15' W 076°33'0 0.0
2015-May-17 00:28N 39°15' W 076°33'0 0.0
2015-May-16 23:28N 39°15' W 076°33'0 0.0
2015-May-16 22:28N 39°15' W 076°33'0 0.0
2015-May-16 21:31N 39°15' W 076°33'0 0.0
2015-May-16 20:22N 39°15' W 076°33'3 3.7
2015-May-16 19:32N 39°13' W 076°31'1411.4
2015-May-16 18:21N 39°01' W 076°22'6119.8
2015-May-16 15:15N 38°00' W 076°12'77 7.2
2015-May-16 04:30N 37°46' W 074°36'1616.7
2015-May-16 03:34N 37°59' W 074°25'1716.7
2015-May-16 02:31N 38°16' W 074°19'1616.5
2015-May-16 01:33N 38°31' W 074°12'1716.9
2015-May-16 00:33N 38°47' W 074°06'2116.9
2015-May-15 23:20N 39°07' W 073°59'1317.0
2015-May-15 22:33N 39°20' W 073°56'1716.8
2015-May-15 21:33N 39°37' W 073°53'1716.7
2015-May-15 20:33N 39°54' W 073°51'1716.6
2015-May-15 19:33N 40°10' W 073°50'1616.4
2015-May-15 18:33N 40°26' W 073°49'1212.0
2015-May-15 17:33N 40°33' W 074°02'8 7.9
2015-May-15 16:33N 40°39' W 074°09'2 2.4
2015-May-15 15:33N 40°41' W 074°09'0 0.0
2015-May-15 14:33N 40°41' W 074°09'0 0.0
2015-May-15 13:27N 40°41' W 074°09'0 0.0
2015-May-15 12:33N 40°41' W 074°09'0 0.0
2015-May-15 11:34N 40°41' W 074°09'0 0.0
2015-May-15 10:31N 40°41' W 074°09'0 0.0
2015-May-15 09:31N 40°41' W 074°09'0 0.0
2015-May-15 08:31N 40°41' W 074°09'0 0.0
2015-May-15 07:33N 40°41' W 074°09'0 0.0
2015-May-15 06:32N 40°41' W 074°09'0 0.0
2015-May-15 05:33N 40°41' W 074°09'0 0.0
2015-May-15 04:32N 40°41' W 074°09'0 0.0
2015-May-15 03:31N 40°41' W 074°09'0 0.0
2015-May-15 02:32N 40°41' W 074°09'0 0.0
2015-May-15 01:26N 40°41' W 074°09'0 0.0
2015-May-15 00:32N 40°41' W 074°09'0 0.0
2015-May-14 23:29N 40°41' W 074°09'0 0.0
2015-May-14 22:33N 40°41' W 074°09'0 0.0
2015-May-14 21:33N 40°41' W 074°09'0 0.0
2015-May-14 20:33N 40°41' W 074°09'0 0.0
2015-May-14 19:25N 40°41' W 074°09'0 0.0
2015-May-14 18:28N 40°41' W 074°09'0 0.0
2015-May-14 17:27N 40°41' W 074°09'0 0.0
2015-May-14 16:33N 40°41' W 074°09'0 0.0
2015-May-14 15:33N 40°41' W 074°09'0 0.0
2015-May-14 14:28N 40°41' W 074°09'0 0.0
2015-May-14 13:04N 40°41' W 074°09'0 0.0
2015-May-14 12:22N 40°41' W 074°09'0 0.0
2015-May-14 11:25N 40°41' W 074°09'0 0.0
2015-May-14 10:30N 40°41' W 074°09'0 0.0
2015-May-14 09:33N 40°41' W 074°09'0 0.0
2015-May-14 08:33N 40°41' W 074°09'0 0.0
2015-May-14 07:33N 40°41' W 074°09'0 0.0
2015-May-14 06:33N 40°41' W 074°09'0 0.0
2015-May-14 05:33N 40°41' W 074°09'0 0.0
2015-May-14 04:33N 40°41' W 074°09'0 0.0
2015-May-14 03:33N 40°41' W 074°09'0 0.0
2015-May-14 02:32N 40°41' W 074°09'0 0.0
2015-May-14 01:33N 40°41' W 074°09'0 0.0
2015-May-14 00:32N 40°41' W 074°09'0 0.0
2015-May-13 23:32N 40°41' W 074°09'0 0.0
2015-May-13 22:31N 40°41' W 074°09'0 0.0
2015-May-13 21:33N 40°41' W 074°09'0 0.0
2015-May-13 20:33N 40°41' W 074°09'0 0.0
2015-May-13 19:33N 40°41' W 074°09'0 0.0
2015-May-13 18:33N 40°41' W 074°09'0 0.0
2015-May-13 17:30N 40°41' W 074°09'0 0.0
2015-May-13 16:33N 40°41' W 074°09'0 0.0
2015-May-13 15:33N 40°41' W 074°09'0 0.0
2015-May-13 14:33N 40°41' W 074°09'0 0.0
2015-May-13 13:33N 40°41' W 074°09'0 0.0
2015-May-13 12:33N 40°41' W 074°09'0 0.0
2015-May-13 11:33N 40°41' W 074°09'0 0.0
2015-May-13 10:33N 40°41' W 074°09'1 1.3
2015-May-13 09:33N 40°40' W 074°08'4 4.4
2015-May-13 08:33N 40°38' W 074°03'1111.2
2015-May-13 07:33N 40°29' W 073°54'9 8.6
2015-May-13 06:32N 40°24' W 073°44'10 8.0
2015-May-13 05:17N 40°19' W 073°33'7 9.2
2015-May-13 04:31N 40°19' W 073°24'0 0.2
2015-May-13 02:31N 40°20' W 073°24'0 0.0
2015-May-13 01:31N 40°20' W 073°24'0 0.0
2015-May-13 00:31N 40°20' W 073°24'0 0.0
2015-May-12 23:28N 40°20' W 073°24'0 0.0
2015-May-12 22:31N 40°20' W 073°24'0 0.0
2015-May-12 21:31N 40°20' W 073°24'0 0.0
2015-May-12 20:28N 40°20' W 073°24'0 0.0
2015-May-12 19:31N 40°20' W 073°24'0 0.0
2015-May-12 18:19N 40°20' W 073°24'0 0.0
2015-May-12 17:25N 40°20' W 073°24'0 0.0
2015-May-12 16:33N 40°20' W 073°24'5 4.6
2015-May-12 15:33N 40°17' W 073°20'1414.0
2015-May-12 14:33N 40°05' W 073°09'1110.0
2015-May-12 13:28N 39°58' W 072°58'3 2.8
2015-May-12 12:27N 39°56' W 072°56'1010.8
2015-May-12 11:33N 39°49' W 072°47'1110.8
2015-May-12 10:33N 39°41' W 072°38'  

Dump ship's entire track history